sensor_id;sensor_type;location;lat;lon;timestamp;pressure;altitude;pressure_sealevel;temperature;humidity
65557;BME280;52200;53.490;14.376;2024-03-08T00:01:47;102383.44;;;-1.68;83.01
65557;BME280;52200;53.490;14.376;2024-03-08T00:04:13;102384.22;;;-1.69;83.31
65557;BME280;52200;53.490;14.376;2024-03-08T00:06:41;102385.69;;;-1.73;83.07
65557;BME280;52200;53.490;14.376;2024-03-08T00:09:06;102388.25;;;-1.71;83.29
65557;BME280;52200;53.490;14.376;2024-03-08T00:11:33;102382.25;;;-1.75;83.25
65557;BME280;52200;53.490;14.376;2024-03-08T00:14:00;102393.09;;;-1.74;83.46
65557;BME280;52200;53.490;14.376;2024-03-08T00:16:25;102387.09;;;-1.78;83.43
65557;BME280;52200;53.490;14.376;2024-03-08T00:18:51;102397.13;;;-1.76;83.21
65557;BME280;52200;53.490;14.376;2024-03-08T00:21:16;102389.72;;;-1.91;83.34
65557;BME280;52200;53.490;14.376;2024-03-08T00:23:42;102386.47;;;-1.90;84.08
65557;BME280;52200;53.490;14.376;2024-03-08T00:26:07;102389.88;;;-1.88;84.19
65557;BME280;52200;53.490;14.376;2024-03-08T00:28:32;102382.66;;;-1.84;83.70
65557;BME280;52200;53.490;14.376;2024-03-08T00:30:59;102389.34;;;-1.83;83.27
65557;BME280;52200;53.490;14.376;2024-03-08T00:33:25;102391.16;;;-1.80;83.69
65557;BME280;52200;53.490;14.376;2024-03-08T00:35:53;102379.38;;;-1.83;83.31
65557;BME280;52200;53.490;14.376;2024-03-08T00:38:18;102382.56;;;-1.85;83.57
65557;BME280;52200;53.490;14.376;2024-03-08T00:40:44;102383.19;;;-1.89;83.61
65557;BME280;52200;53.490;14.376;2024-03-08T00:43:09;102383.66;;;-1.97;83.33
65557;BME280;52200;53.490;14.376;2024-03-08T00:45:35;102382.44;;;-2.51;84.56
65557;BME280;52200;53.490;14.376;2024-03-08T00:48:02;102389.50;;;-2.74;86.56
65557;BME280;52200;53.490;14.376;2024-03-08T00:50:28;102388.56;;;-2.76;87.64
65557;BME280;52200;53.490;14.376;2024-03-08T00:52:53;102392.31;;;-2.53;87.67
65557;BME280;52200;53.490;14.376;2024-03-08T00:55:19;102378.25;;;-2.52;86.94
65557;BME280;52200;53.490;14.376;2024-03-08T00:57:45;102379.28;;;-2.64;87.53
65557;BME280;52200;53.490;14.376;2024-03-08T01:00:11;102370.31;;;-2.92;88.26
65557;BME280;52200;53.490;14.376;2024-03-08T01:02:38;102374.69;;;-2.87;89.09
65557;BME280;52200;53.490;14.376;2024-03-08T01:05:04;102366.41;;;-2.56;88.90
65557;BME280;52200;53.490;14.376;2024-03-08T01:07:33;102374.13;;;-2.52;87.80
65557;BME280;52200;53.490;14.376;2024-03-08T01:09:59;102367.63;;;-2.80;87.95
65557;BME280;52200;53.490;14.376;2024-03-08T01:12:26;102371.91;;;-2.47;88.29
65557;BME280;52200;53.490;14.376;2024-03-08T01:14:51;102364.00;;;-2.40;87.17
65557;BME280;52200;53.490;14.376;2024-03-08T01:17:17;102359.88;;;-2.54;86.89
65557;BME280;52200;53.490;14.376;2024-03-08T01:19:42;102351.97;;;-2.47;86.68
65557;BME280;52200;53.490;14.376;2024-03-08T01:22:10;102358.69;;;-2.46;87.23
65557;BME280;52200;53.490;14.376;2024-03-08T01:24:36;102360.41;;;-2.60;86.27
65557;BME280;52200;53.490;14.376;2024-03-08T01:27:02;102342.88;;;-2.93;87.08
65557;BME280;52200;53.490;14.376;2024-03-08T01:29:28;102356.69;;;-2.83;87.86
65557;BME280;52200;53.490;14.376;2024-03-08T01:31:55;102359.56;;;-2.61;87.05
65557;BME280;52200;53.490;14.376;2024-03-08T01:34:21;102360.22;;;-2.48;86.56
65557;BME280;52200;53.490;14.376;2024-03-08T01:36:48;102355.25;;;-2.48;86.51
65557;BME280;52200;53.490;14.376;2024-03-08T01:39:14;102348.41;;;-2.52;85.61
65557;BME280;52200;53.490;14.376;2024-03-08T01:41:39;102344.88;;;-2.56;85.42
65557;BME280;52200;53.490;14.376;2024-03-08T01:44:05;102348.41;;;-2.52;85.30
65557;BME280;52200;53.490;14.376;2024-03-08T01:46:33;102344.13;;;-2.55;85.06
65557;BME280;52200;53.490;14.376;2024-03-08T01:48:59;102344.31;;;-2.67;85.35
65557;BME280;52200;53.490;14.376;2024-03-08T01:51:28;102339.66;;;-2.61;85.14
65557;BME280;52200;53.490;14.376;2024-03-08T01:53:56;102338.13;;;-2.58;84.66
65557;BME280;52200;53.490;14.376;2024-03-08T01:56:23;102342.91;;;-2.62;84.67
65557;BME280;52200;53.490;14.376;2024-03-08T01:58:50;102329.06;;;-2.73;84.47
65557;BME280;52200;53.490;14.376;2024-03-08T02:01:16;102338.38;;;-2.69;83.90
65557;BME280;52200;53.490;14.376;2024-03-08T02:03:44;102336.84;;;-2.67;84.23
65557;BME280;52200;53.490;14.376;2024-03-08T02:06:13;102333.00;;;-2.77;84.03
65557;BME280;52200;53.490;14.376;2024-03-08T02:08:43;102340.53;;;-2.75;84.02
65557;BME280;52200;53.490;14.376;2024-03-08T02:11:09;102333.00;;;-2.77;84.10
65557;BME280;52200;53.490;14.376;2024-03-08T02:13:35;102329.78;;;-2.90;84.04
65557;BME280;52200;53.490;14.376;2024-03-08T02:16:01;102327.63;;;-2.84;84.18
65557;BME280;52200;53.490;14.376;2024-03-08T02:18:28;102331.63;;;-2.86;83.84
65557;BME280;52200;53.490;14.376;2024-03-08T02:20:59;102324.94;;;-2.87;83.71
65557;BME280;52200;53.490;14.376;2024-03-08T02:23:25;102322.47;;;-2.87;83.77
65557;BME280;52200;53.490;14.376;2024-03-08T02:25:52;102321.53;;;-2.89;83.95
65557;BME280;52200;53.490;14.376;2024-03-08T02:28:19;102320.75;;;-2.88;83.32
65557;BME280;52200;53.490;14.376;2024-03-08T02:30:45;102317.72;;;-3.14;83.73
65557;BME280;52200;53.490;14.376;2024-03-08T02:33:18;102315.38;;;-3.11;83.19
65557;BME280;52200;53.490;14.376;2024-03-08T02:35:47;102300.53;;;-3.10;83.66
65557;BME280;52200;53.490;14.376;2024-03-08T02:38:13;102312.38;;;-3.05;83.06
65557;BME280;52200;53.490;14.376;2024-03-08T02:40:43;102304.06;;;-3.06;83.04
65557;BME280;52200;53.490;14.376;2024-03-08T02:43:09;102305.28;;;-3.14;82.84
65557;BME280;52200;53.490;14.376;2024-03-08T02:45:34;102305.44;;;-3.11;82.98
65557;BME280;52200;53.490;14.376;2024-03-08T02:48:00;102299.78;;;-3.09;82.41
65557;BME280;52200;53.490;14.376;2024-03-08T02:50:26;102303.63;;;-3.14;82.20
65557;BME280;52200;53.490;14.376;2024-03-08T02:52:51;102298.41;;;-3.18;82.95
65557;BME280;52200;53.490;14.376;2024-03-08T02:55:16;102298.41;;;-3.18;82.75
65557;BME280;52200;53.490;14.376;2024-03-08T02:57:42;102291.56;;;-3.22;82.44
65557;BME280;52200;53.490;14.376;2024-03-08T03:00:14;102290.53;;;-3.26;82.20
65557;BME280;52200;53.490;14.376;2024-03-08T03:02:41;102292.94;;;-3.28;82.59
65557;BME280;52200;53.490;14.376;2024-03-08T03:05:08;102293.63;;;-3.30;82.18
65557;BME280;52200;53.490;14.376;2024-03-08T03:07:35;102292.16;;;-3.42;82.09
65557;BME280;52200;53.490;14.376;2024-03-08T03:10:01;102288.81;;;-3.42;82.39
65557;BME280;52200;53.490;14.376;2024-03-08T03:12:30;102290.00;;;-3.50;82.88
65557;BME280;52200;53.490;14.376;2024-03-08T03:14:57;102290.34;;;-3.44;82.86
65557;BME280;52200;53.490;14.376;2024-03-08T03:17:26;102286.25;;;-3.44;82.27
65557;BME280;52200;53.490;14.376;2024-03-08T03:19:52;102283.69;;;-3.45;82.26
65557;BME280;52200;53.490;14.376;2024-03-08T03:22:18;102284.47;;;-3.46;82.31
65557;BME280;52200;53.490;14.376;2024-03-08T03:24:45;102285.72;;;-3.53;82.50
65557;BME280;52200;53.490;14.376;2024-03-08T03:27:12;102286.59;;;-3.52;82.29
65557;BME280;52200;53.490;14.376;2024-03-08T03:29:41;102283.16;;;-3.54;82.20
65557;BME280;52200;53.490;14.376;2024-03-08T03:32:11;102286.41;;;-3.56;81.72
65557;BME280;52200;53.490;14.376;2024-03-08T03:34:37;102286.75;;;-3.64;82.05
65557;BME280;52200;53.490;14.376;2024-03-08T03:37:03;102290.94;;;-3.63;82.02
65557;BME280;52200;53.490;14.376;2024-03-08T03:39:30;102284.19;;;-3.66;82.33
65557;BME280;52200;53.490;14.376;2024-03-08T03:41:59;102283.22;;;-3.68;82.05
65557;BME280;52200;53.490;14.376;2024-03-08T03:44:27;102280.22;;;-3.77;82.11
65557;BME280;52200;53.490;14.376;2024-03-08T03:46:53;102281.84;;;-3.78;82.08
65557;BME280;52200;53.490;14.376;2024-03-08T03:49:19;102277.91;;;-3.74;81.79
65557;BME280;52200;53.490;14.376;2024-03-08T03:51:47;102287.06;;;-3.73;82.55
65557;BME280;52200;53.490;14.376;2024-03-08T03:54:13;102275.75;;;-3.83;81.94
65557;BME280;52200;53.490;14.376;2024-03-08T03:56:38;102276.44;;;-3.85;82.12
65557;BME280;52200;53.490;14.376;2024-03-08T03:59:05;102278.16;;;-3.84;81.74
65557;BME280;52200;53.490;14.376;2024-03-08T04:01:32;102271.88;;;-3.93;81.56
65557;BME280;52200;53.490;14.376;2024-03-08T04:03:57;102281.84;;;-4.06;82.22
65557;BME280;52200;53.490;14.376;2024-03-08T04:06:23;102272.41;;;-3.98;81.98
65557;BME280;52200;53.490;14.376;2024-03-08T04:08:49;102282.56;;;-3.94;81.51
65557;BME280;52200;53.490;14.376;2024-03-08T04:11:15;102279.34;;;-3.93;81.45
65557;BME280;52200;53.490;14.376;2024-03-08T04:13:42;102282.41;;;-3.97;81.70
65557;BME280;52200;53.490;14.376;2024-03-08T04:16:08;102275.19;;;-4.07;82.05
65557;BME280;52200;53.490;14.376;2024-03-08T04:18:34;102279.63;;;-4.16;82.08
65557;BME280;52200;53.490;14.376;2024-03-08T04:21:02;102279.50;;;-4.05;81.77
65557;BME280;52200;53.490;14.376;2024-03-08T04:23:27;102271.94;;;-4.06;81.96
65557;BME280;52200;53.490;14.376;2024-03-08T04:25:54;102271.94;;;-4.06;81.92
65557;BME280;52200;53.490;14.376;2024-03-08T04:28:19;102275.25;;;-4.21;81.90
65557;BME280;52200;53.490;14.376;2024-03-08T04:30:44;102271.06;;;-4.22;82.07
65557;BME280;52200;53.490;14.376;2024-03-08T04:33:11;102272.84;;;-4.19;82.03
65557;BME280;52200;53.490;14.376;2024-03-08T04:35:36;102271.22;;;-4.18;82.00
65557;BME280;52200;53.490;14.376;2024-03-08T04:38:02;102257.28;;;-4.16;81.34
65557;BME280;52200;53.490;14.376;2024-03-08T04:40:30;102265.41;;;-4.19;81.85
65557;BME280;52200;53.490;14.376;2024-03-08T04:42:58;102265.88;;;-4.25;81.83
65557;BME280;52200;53.490;14.376;2024-03-08T04:45:24;102262.66;;;-4.24;81.86
65557;BME280;52200;53.490;14.376;2024-03-08T04:47:51;102258.44;;;-4.53;81.89
65557;BME280;52200;53.490;14.376;2024-03-08T04:50:18;102257.19;;;-4.46;82.03
65557;BME280;52200;53.490;14.376;2024-03-08T04:52:43;102254.31;;;-4.39;81.83
65557;BME280;52200;53.490;14.376;2024-03-08T04:55:09;102255.06;;;-4.40;82.04
65557;BME280;52200;53.490;14.376;2024-03-08T04:57:35;102263.28;;;-4.41;81.90
65557;BME280;52200;53.490;14.376;2024-03-08T05:00:02;102253.63;;;-4.37;82.03
65557;BME280;52200;53.490;14.376;2024-03-08T05:02:29;102268.41;;;-4.38;81.59
65557;BME280;52200;53.490;14.376;2024-03-08T05:04:55;102266.53;;;-4.56;82.02
65557;BME280;52200;53.490;14.376;2024-03-08T05:07:20;102257.38;;;-4.57;82.00
65557;BME280;52200;53.490;14.376;2024-03-08T05:09:45;102255.50;;;-4.74;82.35
65557;BME280;52200;53.490;14.376;2024-03-08T05:12:17;102260.28;;;-4.77;82.35
65557;BME280;52200;53.490;14.376;2024-03-08T05:14:43;102258.38;;;-4.68;81.88
65557;BME280;52200;53.490;14.376;2024-03-08T05:17:08;102256.00;;;-4.66;82.11
65557;BME280;52200;53.490;14.376;2024-03-08T05:19:36;102259.09;;;-4.56;82.35
65557;BME280;52200;53.490;14.376;2024-03-08T05:22:01;102255.94;;;-4.53;81.81
65557;BME280;52200;53.490;14.376;2024-03-08T05:24:35;102254.16;;;-4.56;80.89
65557;BME280;52200;53.490;14.376;2024-03-08T05:27:01;102253.00;;;-4.61;81.48
65557;BME280;52200;53.490;14.376;2024-03-08T05:29:27;102253.59;;;-4.65;81.40
65557;BME280;52200;53.490;14.376;2024-03-08T05:31:54;102257.59;;;-4.54;81.39
65557;BME280;52200;53.490;14.376;2024-03-08T05:34:20;102259.78;;;-4.58;81.24
65557;BME280;52200;53.490;14.376;2024-03-08T05:36:47;102257.38;;;-4.57;81.30
65557;BME280;52200;53.490;14.376;2024-03-08T05:39:15;102254.16;;;-4.56;80.93
65557;BME280;52200;53.490;14.376;2024-03-08T05:41:41;102250.84;;;-4.70;81.24
65557;BME280;52200;53.490;14.376;2024-03-08T05:44:07;102247.88;;;-4.64;81.57
65557;BME280;52200;53.490;14.376;2024-03-08T05:46:33;102251.66;;;-4.56;81.83
65557;BME280;52200;53.490;14.376;2024-03-08T05:48:59;102241.66;;;-4.57;81.53
65557;BME280;52200;53.490;14.376;2024-03-08T05:51:25;102240.63;;;-4.74;81.71
65557;BME280;52200;53.490;14.376;2024-03-08T05:53:53;102237.78;;;-4.67;82.06
65557;BME280;52200;53.490;14.376;2024-03-08T05:56:19;102244.75;;;-4.75;81.77
65557;BME280;52200;53.490;14.376;2024-03-08T05:58:44;102246.31;;;-4.48;81.80
65557;BME280;52200;53.490;14.376;2024-03-08T06:01:11;102238.94;;;-4.47;81.42
65557;BME280;52200;53.490;14.376;2024-03-08T06:03:38;102248.19;;;-4.44;81.51
65557;BME280;52200;53.490;14.376;2024-03-08T06:06:12;102245.56;;;-4.47;81.86
65557;BME280;52200;53.490;14.376;2024-03-08T06:08:37;102246.50;;;-4.45;82.17
65557;BME280;52200;53.490;14.376;2024-03-08T06:11:03;102251.00;;;-4.25;81.64
65557;BME280;52200;53.490;14.376;2024-03-08T06:13:28;102243.47;;;-4.26;81.69
65557;BME280;52200;53.490;14.376;2024-03-08T06:15:56;102251.72;;;-4.12;81.70
65557;BME280;52200;53.490;14.376;2024-03-08T06:18:22;102250.66;;;-4.31;81.88
65557;BME280;52200;53.490;14.376;2024-03-08T06:20:47;102252.38;;;-4.30;82.39
65557;BME280;52200;53.490;14.376;2024-03-08T06:23:13;102256.16;;;-4.22;82.55
65557;BME280;52200;53.490;14.376;2024-03-08T06:25:46;102249.03;;;-4.02;82.30
65557;BME280;52200;53.490;14.376;2024-03-08T06:28:11;102248.50;;;-3.96;82.55
65557;BME280;52200;53.490;14.376;2024-03-08T06:30:36;102250.50;;;-3.91;81.77
65557;BME280;52200;53.490;14.376;2024-03-08T06:33:02;102244.25;;;-3.69;82.39
65557;BME280;52200;53.490;14.376;2024-03-08T06:35:28;102241.69;;;-3.56;82.17
65557;BME280;52200;53.490;14.376;2024-03-08T06:37:53;102242.91;;;-3.64;82.24
65557;BME280;52200;53.490;14.376;2024-03-08T06:40:19;102248.03;;;-3.46;82.44
65557;BME280;52200;53.490;14.376;2024-03-08T06:42:44;102246.66;;;-3.26;82.72
65557;BME280;52200;53.490;14.376;2024-03-08T06:45:10;102242.34;;;-3.13;82.54
65557;BME280;52200;53.490;14.376;2024-03-08T06:47:37;102241.97;;;-3.04;82.16
65557;BME280;52200;53.490;14.376;2024-03-08T06:50:03;102240.84;;;-2.95;81.87
65557;BME280;52200;53.490;14.376;2024-03-08T06:52:29;102247.28;;;-2.83;82.08
65557;BME280;52200;53.490;14.376;2024-03-08T06:54:54;102246.19;;;-2.72;82.53
65557;BME280;52200;53.490;14.376;2024-03-08T06:57:20;102241.69;;;-2.63;82.36
65557;BME280;52200;53.490;14.376;2024-03-08T06:59:48;102245.13;;;-2.61;82.00
65557;BME280;52200;53.490;14.376;2024-03-08T07:02:13;102245.00;;;-2.47;82.70
65557;BME280;52200;53.490;14.376;2024-03-08T07:04:38;102248.97;;;-2.34;83.08
65557;BME280;52200;53.490;14.376;2024-03-08T07:07:05;102252.00;;;-2.23;83.04
65557;BME280;52200;53.490;14.376;2024-03-08T07:09:30;102247.47;;;-2.14;82.96
65557;BME280;52200;53.490;14.376;2024-03-08T07:11:56;102246.69;;;-1.97;82.60
65557;BME280;52200;53.490;14.376;2024-03-08T07:14:22;102248.84;;;-1.86;83.04
65557;BME280;52200;53.490;14.376;2024-03-08T07:16:48;102250.47;;;-1.70;82.87
65557;BME280;52200;53.490;14.376;2024-03-08T07:19:13;102251.75;;;-1.60;83.29
65557;BME280;52200;53.490;14.376;2024-03-08T07:21:39;102252.66;;;-1.58;83.22
65557;BME280;52200;53.490;14.376;2024-03-08T07:24:04;102253.25;;;-1.46;83.57
65557;BME280;52200;53.490;14.376;2024-03-08T07:26:45;102257.00;;;-1.20;83.56
65557;BME280;52200;53.490;14.376;2024-03-08T07:29:14;102249.38;;;-1.05;83.80
65557;BME280;52200;53.490;14.376;2024-03-08T07:31:40;102252.28;;;-0.95;83.83
65557;BME280;52200;53.490;14.376;2024-03-08T07:34:40;102254.53;;;-0.82;83.97
65557;BME280;52200;53.490;14.376;2024-03-08T07:37:06;102247.75;;;-0.67;84.12
65557;BME280;52200;53.490;14.376;2024-03-08T07:39:37;102242.66;;;-0.50;84.60
65557;BME280;52200;53.490;14.376;2024-03-08T07:42:02;102231.69;;;-0.34;85.78
65557;BME280;52200;53.490;14.376;2024-03-08T07:44:28;102238.28;;;-0.15;85.29
65557;BME280;52200;53.490;14.376;2024-03-08T07:46:54;102235.66;;;0.02;86.05
65557;BME280;52200;53.490;14.376;2024-03-08T07:49:20;102226.22;;;0.15;85.86
65557;BME280;52200;53.490;14.376;2024-03-08T07:51:45;102233.50;;;0.30;86.61
65557;BME280;52200;53.490;14.376;2024-03-08T07:54:11;102231.78;;;0.51;86.24
65557;BME280;52200;53.490;14.376;2024-03-08T07:56:36;102228.91;;;0.62;87.91
65557;BME280;52200;53.490;14.376;2024-03-08T07:59:02;102230.69;;;0.65;89.09
65557;BME280;52200;53.490;14.376;2024-03-08T08:01:29;102226.63;;;0.90;89.28
65557;BME280;52200;53.490;14.376;2024-03-08T08:03:56;102222.69;;;0.96;88.77
65557;BME280;52200;53.490;14.376;2024-03-08T08:06:22;102225.19;;;1.19;88.09
65557;BME280;52200;53.490;14.376;2024-03-08T08:08:47;102214.94;;;1.36;86.92
65557;BME280;52200;53.490;14.376;2024-03-08T08:11:13;102225.38;;;1.48;86.68
65557;BME280;52200;53.490;14.376;2024-03-08T08:13:40;102224.81;;;1.80;87.00
65557;BME280;52200;53.490;14.376;2024-03-08T08:16:07;102218.13;;;1.80;85.73
65557;BME280;52200;53.490;14.376;2024-03-08T08:18:33;102227.38;;;2.07;85.27
65557;BME280;52200;53.490;14.376;2024-03-08T08:20:59;102222.25;;;2.30;83.77
65557;BME280;52200;53.490;14.376;2024-03-08T08:23:25;102221.06;;;2.46;83.70
65557;BME280;52200;53.490;14.376;2024-03-08T08:25:51;102231.09;;;2.73;83.74
65557;BME280;52200;53.490;14.376;2024-03-08T08:28:17;102227.50;;;2.65;82.34
65557;BME280;52200;53.490;14.376;2024-03-08T08:30:46;102220.81;;;2.93;82.44
65557;BME280;52200;53.490;14.376;2024-03-08T08:33:11;102216.88;;;3.01;80.76
65557;BME280;52200;53.490;14.376;2024-03-08T08:35:38;102221.97;;;3.04;80.88
65557;BME280;52200;53.490;14.376;2024-03-08T08:38:04;102221.75;;;3.27;80.58
65557;BME280;52200;53.490;14.376;2024-03-08T08:40:30;102225.44;;;3.38;80.13
65557;BME280;52200;53.490;14.376;2024-03-08T08:42:57;102220.81;;;3.53;79.15
65557;BME280;52200;53.490;14.376;2024-03-08T08:45:23;102216.00;;;3.61;78.14
65557;BME280;52200;53.490;14.376;2024-03-08T08:47:49;102213.59;;;3.98;77.25
65557;BME280;52200;53.490;14.376;2024-03-08T08:50:15;102210.84;;;4.24;76.38
65557;BME280;52200;53.490;14.376;2024-03-08T08:52:41;102208.75;;;4.41;76.49
65557;BME280;52200;53.490;14.376;2024-03-08T08:55:10;102204.63;;;4.44;75.26
65557;BME280;52200;53.490;14.376;2024-03-08T08:57:40;102199.66;;;4.47;74.31
65557;BME280;52200;53.490;14.376;2024-03-08T09:00:06;102201.53;;;4.58;73.95
65557;BME280;52200;53.490;14.376;2024-03-08T09:02:40;102191.03;;;4.76;72.85
65557;BME280;52200;53.490;14.376;2024-03-08T09:05:06;102189.81;;;4.96;72.12
65557;BME280;52200;53.490;14.376;2024-03-08T09:07:33;102185.50;;;4.92;71.04
65557;BME280;52200;53.490;14.376;2024-03-08T09:10:00;102187.19;;;4.92;69.51
65557;BME280;52200;53.490;14.376;2024-03-08T09:12:25;102183.31;;;5.08;69.40
65557;BME280;52200;53.490;14.376;2024-03-08T09:14:51;102177.59;;;5.16;68.04
65557;BME280;52200;53.490;14.376;2024-03-08T09:17:16;102171.75;;;5.18;68.91
65557;BME280;52200;53.490;14.376;2024-03-08T09:19:48;102173.78;;;5.37;67.74
65557;BME280;52200;53.490;14.376;2024-03-08T09:22:13;102175.03;;;5.59;65.92
65557;BME280;52200;53.490;14.376;2024-03-08T09:24:39;102167.47;;;5.59;65.44
65557;BME280;52200;53.490;14.376;2024-03-08T09:27:05;102163.25;;;5.60;65.52
65557;BME280;52200;53.490;14.376;2024-03-08T09:29:31;102159.03;;;5.59;65.54
65557;BME280;52200;53.490;14.376;2024-03-08T09:31:56;102163.50;;;5.75;64.26
65557;BME280;52200;53.490;14.376;2024-03-08T09:34:22;102162.03;;;5.87;65.05
65557;BME280;52200;53.490;14.376;2024-03-08T09:36:47;102169.25;;;6.17;64.06
65557;BME280;52200;53.490;14.376;2024-03-08T09:39:13;102154.97;;;6.18;63.91
65557;BME280;52200;53.490;14.376;2024-03-08T09:41:43;102155.16;;;6.32;63.47
65557;BME280;52200;53.490;14.376;2024-03-08T09:44:09;102161.28;;;6.48;63.37
65557;BME280;52200;53.490;14.376;2024-03-08T09:46:35;102148.50;;;6.35;61.94
65557;BME280;52200;53.490;14.376;2024-03-08T09:49:01;102146.69;;;6.26;62.70
65557;BME280;52200;53.490;14.376;2024-03-08T09:51:33;102139.22;;;6.34;63.19
65557;BME280;52200;53.490;14.376;2024-03-08T09:54:01;102138.56;;;6.48;62.82
65557;BME280;52200;53.490;14.376;2024-03-08T09:56:32;102140.34;;;6.56;61.48
65557;BME280;52200;53.490;14.376;2024-03-08T09:58:59;102129.31;;;6.50;62.27
65557;BME280;52200;53.490;14.376;2024-03-08T10:01:36;102127.50;;;6.39;60.54
65557;BME280;52200;53.490;14.376;2024-03-08T10:04:04;102119.16;;;6.45;61.29
65557;BME280;52200;53.490;14.376;2024-03-08T10:06:30;102131.78;;;6.45;60.77
65557;BME280;52200;53.490;14.376;2024-03-08T10:08:56;102127.78;;;6.61;61.13
65557;BME280;52200;53.490;14.376;2024-03-08T10:11:22;102125.94;;;6.49;60.51
65557;BME280;52200;53.490;14.376;2024-03-08T10:13:49;102131.91;;;6.54;59.91
65557;BME280;52200;53.490;14.376;2024-03-08T10:16:15;102119.69;;;6.87;60.11
65557;BME280;52200;53.490;14.376;2024-03-08T10:18:42;102122.06;;;6.74;59.03
65557;BME280;52200;53.490;14.376;2024-03-08T10:21:08;102124.75;;;6.87;59.87
65557;BME280;52200;53.490;14.376;2024-03-08T10:23:36;102118.88;;;6.91;59.32
65557;BME280;52200;53.490;14.376;2024-03-08T10:26:15;102116.44;;;7.00;58.41
65557;BME280;52200;53.490;14.376;2024-03-08T10:28:46;102116.41;;;6.97;57.37
65557;BME280;52200;53.490;14.376;2024-03-08T10:31:13;102116.31;;;6.88;57.82
65557;BME280;52200;53.490;14.376;2024-03-08T10:33:40;102118.38;;;7.23;59.84
65557;BME280;52200;53.490;14.376;2024-03-08T10:36:10;102117.47;;;7.18;58.09
65557;BME280;52200;53.490;14.376;2024-03-08T10:38:37;102114.97;;;7.22;56.29
65557;BME280;52200;53.490;14.376;2024-03-08T10:41:06;102116.63;;;7.17;57.24
65557;BME280;52200;53.490;14.376;2024-03-08T10:43:54;102114.63;;;6.87;57.08
65557;BME280;52200;53.490;14.376;2024-03-08T10:49:12;102109.09;;;7.20;56.45
65557;BME280;52200;53.490;14.376;2024-03-08T10:51:43;102107.22;;;7.04;55.47
65557;BME280;52200;53.490;14.376;2024-03-08T10:54:10;102097.28;;;7.21;56.81
65557;BME280;52200;53.490;14.376;2024-03-08T10:56:37;102088.91;;;7.26;55.21
65557;BME280;52200;53.490;14.376;2024-03-08T10:59:03;102086.09;;;6.97;55.92
65557;BME280;52200;53.490;14.376;2024-03-08T11:01:30;102091.97;;;6.93;55.69
65557;BME280;52200;53.490;14.376;2024-03-08T11:03:56;102092.16;;;7.12;56.19
65557;BME280;52200;53.490;14.376;2024-03-08T11:06:42;102081.88;;;6.98;56.30
65557;BME280;52200;53.490;14.376;2024-03-08T11:14:49;102070.66;;;7.60;57.67
65557;BME280;52200;53.490;14.376;2024-03-08T11:17:20;102076.41;;;7.43;54.57
65557;BME280;52200;53.490;14.376;2024-03-08T11:19:47;102063.69;;;7.33;54.49
65557;BME280;52200;53.490;14.376;2024-03-08T11:22:49;102075.41;;;7.23;55.20
65557;BME280;52200;53.490;14.376;2024-03-08T11:25:37;102063.81;;;7.45;55.31
65557;BME280;52200;53.490;14.376;2024-03-08T11:33:40;102054.56;;;7.50;53.79
65557;BME280;52200;53.490;14.376;2024-03-08T11:36:27;102050.25;;;7.37;53.10
65557;BME280;52200;53.490;14.376;2024-03-08T11:38:53;102050.94;;;7.20;53.32
65557;BME280;52200;53.490;14.376;2024-03-08T11:41:21;102042.66;;;7.35;53.88
65557;BME280;52200;53.490;14.376;2024-03-08T11:43:47;102037.69;;;7.51;53.77
65557;BME280;52200;53.490;14.376;2024-03-08T11:46:15;102036.16;;;7.73;53.91
65557;BME280;52200;53.490;14.376;2024-03-08T11:48:42;102036.13;;;7.68;53.29
65557;BME280;52200;53.490;14.376;2024-03-08T11:51:12;102029.41;;;7.72;53.83
65557;BME280;52200;53.490;14.376;2024-03-08T11:53:39;102025.31;;;7.94;52.72
65557;BME280;52200;53.490;14.376;2024-03-08T11:56:13;102027.66;;;7.63;53.04
65557;BME280;52200;53.490;14.376;2024-03-08T11:58:40;102019.34;;;7.81;52.55
65557;BME280;52200;53.490;14.376;2024-03-08T12:01:07;102010.81;;;7.65;51.89
65557;BME280;52200;53.490;14.376;2024-03-08T12:03:34;102019.38;;;7.83;52.32
65557;BME280;52200;53.490;14.376;2024-03-08T12:06:00;102015.16;;;7.88;52.29
65557;BME280;52200;53.490;14.376;2024-03-08T12:08:27;102011.00;;;7.99;51.55
65557;BME280;52200;53.490;14.376;2024-03-08T12:10:55;102011.91;;;8.04;51.24
65557;BME280;52200;53.490;14.376;2024-03-08T12:13:26;102006.78;;;7.97;50.81
65557;BME280;52200;53.490;14.376;2024-03-08T12:15:58;102004.34;;;8.17;51.11
65557;BME280;52200;53.490;14.376;2024-03-08T12:18:25;101995.09;;;8.20;50.90
65557;BME280;52200;53.490;14.376;2024-03-08T12:20:52;101994.28;;;8.29;49.01
65557;BME280;52200;53.490;14.376;2024-03-08T12:23:28;101990.78;;;8.05;49.86
65557;BME280;52200;53.490;14.376;2024-03-08T12:25:54;101986.59;;;8.07;48.44
65557;BME280;52200;53.490;14.376;2024-03-08T12:28:19;101977.22;;;7.88;47.90
65557;BME280;52200;53.490;14.376;2024-03-08T12:30:51;101973.75;;;7.70;48.22
65557;BME280;52200;53.490;14.376;2024-03-08T12:33:19;101977.94;;;7.65;49.11
65557;BME280;52200;53.490;14.376;2024-03-08T12:35:52;101976.25;;;7.61;49.43
65557;BME280;52200;53.490;14.376;2024-03-08T12:38:24;101977.19;;;7.80;50.28
65557;BME280;52200;53.490;14.376;2024-03-08T12:40:58;101973.81;;;7.81;49.86
65557;BME280;52200;53.490;14.376;2024-03-08T12:43:24;101970.47;;;7.93;49.32
65557;BME280;52200;53.490;14.376;2024-03-08T12:45:50;101959.59;;;8.05;49.71
65557;BME280;52200;53.490;14.376;2024-03-08T12:48:16;101968.84;;;8.00;49.95
65557;BME280;52200;53.490;14.376;2024-03-08T12:50:42;101965.44;;;7.99;51.22
65557;BME280;52200;53.490;14.376;2024-03-08T12:53:13;101955.34;;;8.05;50.46
65557;BME280;52200;53.490;14.376;2024-03-08T12:55:39;101952.03;;;8.16;49.67
65557;BME280;52200;53.490;14.376;2024-03-08T12:58:06;101944.34;;;7.93;50.70